Veneta, OR

12:11 AM PDT on September 02, 2014 (GMT -0700)
Newport Municipal | Change Station
CLOSE
Current Station
Airport
Location: Newport Airport,
Elevation: 157 ft
Nearby Weather Stations

Elev 157 ft 44.58 °N, 124.06 °W | Updated 16 minutes ago

Overcast
Overcast
59 °F
Feels Like 59 °F
N
12
Wind Variable Wind from North

Today
High -- | Low -- °F
--% Chance of Precip.
Yesterday
High -- | Low -- °F
Precip. -- in
6:37 AM 7:47 PM
Waxing Crescent, 48% visible
Pressure 30.01 in
Visibility 7.0 miles
Clouds Mostly Cloudy 300 ft
Overcast 700 ft
Dew Point 59 °F
Humidity 100%
Rainfall 0.00 in
Snow Depth Not available.
UV 0 out of 12
Pollen 2.90 out of 12
Air Quality Not available.
Flu Activity Not available.
METAR KONP 020655Z AUTO 36010KT 7SM BKN003 OVC007 15/15 A3001 RMK AO2

More Conditions Fewer Conditions

Pressure 30.01 in
Visibility 7.0 miles
Clouds Mostly Cloudy 300 ft
Overcast 700 ft
Dew Point 59 °F
Humidity 100%
Rainfall 0.00 in
Snow Depth Not available.
UV 0 out of 12
Pollen 2.90 out of 12
Air Quality Not available.
Flu Activity Not available.
METAR KONP 020655Z AUTO 36010KT 7SM BKN003 OVC007 15/15 A3001 RMK AO2

More Conditions Fewer Conditions

10-Day Weather Forecast

Almanac

Astronomy

Sep. 02, 2014 Rise Set
Actual Time 6:37 AM PDT 7:47 PM PDT
Civil Twilight 6:08 AM PDT 8:16 PM PDT
Nautical Twilight 5:32 AM PDT 8:52 PM PDT
Astronomical Twilight 4:54 AM PDT 9:29 PM PDT
Moon 2:42 PM PDT No Moon Set
Length of Visible Light 14h 08m
Length of Day
13h 09m
Tomorrow will be 2m 55s shorter.
Waxing Crescent, 48% of the Moon is Illuminated
Today
Waxing Crescent
Sep 2
First Quarter
Sep 8
Full
Sep 15
Last Quarter
Sep 24
New

Today's Extremes

State Highs State Lows

Community

WunderPhotos

Upload Photos

1,749,589 photos uploaded!

WunderBlogs® & News

Nearby

Snow Depth

Station Depth Elevation
Holland Meadows 0 in 4900 ft
Roaring River 0 in 4900 ft
Salt Creek Falls 0 in 4000 ft
Irish Taylor 0 in 5500 ft
Cascade Summit 0 in 4880 ft

Earthquake Activity

City Distance Mag. Time & Date
No recent earthquake activity has been reported nearby.
Minimum magnitude displayed is 2.5.

Coastal Water Temperatures

Place Temperature
No Stations Reporting

Nearby Weather Stations